createdAt,value
2023-06-28T00:00:17.438Z,6.07
2023-06-28T00:02:46.923Z,6.75
2023-06-28T00:05:16.117Z,4.97
2023-06-28T00:07:45.160Z,5.55
2023-06-28T00:10:14.140Z,5.22
2023-06-28T00:12:43.132Z,5.32
2023-06-28T00:15:12.600Z,5.13
2023-06-28T00:17:41.583Z,5.28
2023-06-28T00:20:13.078Z,5.80
2023-06-28T00:22:42.264Z,5.97
2023-06-28T00:25:11.706Z,5.53
2023-06-28T00:27:40.872Z,5.25
2023-06-28T00:30:10.660Z,5.05
2023-06-28T00:32:39.880Z,5.38
2023-06-28T00:35:09.662Z,6.68
2023-06-28T00:37:38.670Z,5.13
2023-06-28T00:40:08.639Z,5.00
2023-06-28T00:42:37.607Z,5.35
2023-06-28T00:45:06.979Z,5.22
2023-06-28T00:47:36.100Z,4.60
2023-06-28T00:50:05.870Z,4.32
2023-06-28T00:52:35.211Z,4.90
2023-06-28T00:55:04.222Z,3.90
2023-06-28T00:57:33.999Z,4.50
2023-06-28T01:00:03.178Z,4.35
2023-06-28T01:02:33.260Z,4.10
2023-06-28T01:05:02.553Z,4.07
2023-06-28T01:07:32.441Z,4.55
2023-06-28T01:10:01.496Z,4.20
2023-06-28T01:12:31.519Z,3.72
2023-06-28T01:15:00.633Z,4.15
2023-06-28T01:17:30.065Z,4.10
2023-06-28T01:19:59.132Z,3.70
2023-06-28T01:22:29.661Z,3.63
2023-06-28T01:24:58.683Z,3.67
2023-06-28T01:27:28.110Z,3.20
2023-06-28T01:29:58.637Z,3.53
2023-06-28T01:32:27.833Z,3.38
2023-06-28T01:34:56.949Z,3.40
2023-06-28T01:37:26.801Z,3.75
2023-06-28T01:39:55.996Z,4.07
2023-06-28T01:42:25.050Z,3.53
2023-06-28T01:44:54.043Z,4.10
2023-06-28T01:47:26.537Z,3.55
2023-06-28T01:49:55.777Z,5.25
2023-06-28T01:52:24.787Z,6.18
2023-06-28T01:54:53.813Z,4.05
2023-06-28T01:57:22.876Z,3.30
2023-06-28T01:59:51.895Z,4.40
2023-06-28T02:02:21.043Z,3.85
2023-06-28T02:04:50.417Z,3.67
2023-06-28T02:07:19.530Z,3.20
2023-06-28T02:09:48.571Z,3.25
2023-06-28T02:12:17.526Z,4.07
2023-06-28T02:14:46.532Z,2.97
2023-06-28T02:17:18.598Z,3.97
2023-06-28T02:19:48.052Z,3.60
2023-06-28T02:22:21.402Z,3.47
2023-06-28T02:24:50.451Z,3.08
2023-06-28T02:27:19.537Z,3.25
2023-06-28T02:29:48.656Z,3.17
2023-06-28T02:32:17.738Z,3.60
2023-06-28T02:34:46.790Z,3.28
2023-06-28T02:37:15.827Z,5.18
2023-06-28T02:39:44.824Z,5.57
2023-06-28T02:42:13.862Z,3.10
2023-06-28T02:44:42.998Z,5.40
2023-06-28T02:47:12.264Z,5.88
2023-06-28T02:49:41.568Z,4.28
2023-06-28T02:52:10.693Z,4.28
2023-06-28T02:54:39.776Z,4.30
2023-06-28T02:57:10.791Z,3.30
2023-06-28T02:59:40.132Z,3.45
2023-06-28T03:02:11.285Z,3.40
2023-06-28T03:04:42.033Z,3.85
2023-06-28T03:07:21.228Z,4.25
2023-06-28T03:09:50.313Z,4.03
2023-06-28T03:12:19.372Z,4.43
2023-06-28T03:14:48.588Z,4.30
2023-06-28T03:17:19.240Z,3.90
2023-06-28T03:19:48.470Z,4.90
2023-06-28T03:22:17.663Z,4.05
2023-06-28T03:24:46.673Z,4.90
2023-06-28T03:27:15.692Z,4.40
2023-06-28T03:29:44.732Z,4.68
2023-06-28T03:32:13.883Z,3.80
2023-06-28T03:34:43.081Z,4.00
2023-06-28T03:37:13.175Z,5.93
2023-06-28T03:39:42.187Z,4.93
2023-06-28T03:42:11.276Z,3.83
2023-06-28T03:44:40.258Z,3.53
2023-06-28T03:47:09.398Z,3.70
2023-06-28T03:49:38.764Z,3.05
2023-06-28T03:52:08.060Z,4.00
2023-06-28T03:54:37.083Z,4.57
2023-06-28T03:57:07.412Z,4.95
2023-06-28T03:59:36.598Z,4.68
2023-06-28T04:02:05.930Z,4.63
2023-06-28T04:04:35.950Z,5.72
2023-06-28T04:07:05.088Z,4.45
2023-06-28T04:09:34.979Z,3.65
2023-06-28T04:12:04.021Z,3.35
2023-06-28T04:14:34.970Z,3.30
2023-06-28T04:17:05.756Z,3.17
2023-06-28T04:19:35.166Z,3.40
2023-06-28T04:22:04.609Z,3.47
2023-06-28T04:24:33.761Z,3.13
2023-06-28T04:27:03.043Z,2.00
2023-06-28T04:29:32.237Z,1.60
2023-06-28T04:32:05.871Z,1.55
2023-06-28T04:39:35.652Z,1.58
2023-06-28T04:42:05.499Z,1.08
2023-06-28T04:44:41.857Z,1.42
2023-06-28T04:47:11.941Z,2.05
2023-06-28T04:49:41.083Z,1.50
2023-06-28T04:52:10.171Z,1.98
2023-06-28T04:54:39.105Z,2.17
2023-06-28T04:57:08.322Z,3.20
2023-06-28T04:59:37.535Z,1.83
2023-06-28T05:02:07.787Z,2.33
2023-06-28T05:04:37.376Z,3.03
2023-06-28T05:07:08.376Z,3.83
2023-06-28T05:09:38.849Z,3.13
2023-06-28T05:12:08.434Z,1.83
2023-06-28T05:14:37.494Z,1.88
2023-06-28T05:17:06.678Z,2.38
2023-06-28T05:19:35.754Z,2.40
2023-06-28T05:22:05.067Z,2.47
2023-06-28T05:24:34.167Z,2.20
2023-06-28T05:27:03.320Z,2.92
2023-06-28T05:29:32.594Z,2.20
2023-06-28T05:32:01.761Z,2.35
2023-06-28T05:34:30.775Z,1.90
2023-06-28T05:36:59.850Z,3.10
2023-06-28T05:39:28.838Z,1.92
2023-06-28T05:41:58.004Z,2.40
2023-06-28T05:44:27.068Z,2.75
2023-06-28T05:46:56.122Z,3.35
2023-06-28T05:49:25.445Z,2.00
2023-06-28T05:51:54.594Z,2.25
2023-06-28T05:54:26.283Z,3.20
2023-06-28T05:56:55.501Z,3.50
2023-06-28T05:59:24.600Z,1.98
2023-06-28T06:01:55.440Z,2.55
2023-06-28T06:04:25.803Z,4.68
2023-06-28T06:06:55.140Z,5.30
2023-06-28T06:09:24.353Z,3.15
2023-06-28T06:11:53.496Z,3.05
2023-06-28T06:14:25.392Z,2.30
2023-06-28T06:16:57.349Z,2.05
2023-06-28T06:19:26.372Z,5.10
2023-06-28T06:21:55.405Z,3.40
2023-06-28T06:24:25.451Z,2.90
2023-06-28T06:26:56.395Z,3.85
2023-06-28T06:29:25.392Z,1.65
2023-06-28T06:31:55.502Z,3.05
2023-06-28T06:34:24.451Z,2.45
2023-06-28T06:36:53.577Z,2.30
2023-06-28T06:39:22.528Z,2.30
2023-06-28T06:41:51.535Z,2.20
2023-06-28T06:44:20.662Z,2.40
2023-06-28T06:46:49.672Z,3.15
2023-06-28T06:49:21.376Z,2.95
2023-06-28T06:51:50.629Z,2.30
2023-06-28T06:54:19.626Z,2.72
2023-06-28T06:56:48.660Z,2.72
2023-06-28T06:59:18.953Z,3.17
2023-06-28T07:01:48.879Z,2.97
2023-06-28T07:04:17.936Z,2.95
2023-06-28T07:06:49.728Z,3.05
2023-06-28T07:09:19.948Z,2.63
2023-06-28T07:11:49.237Z,2.10
2023-06-28T07:14:18.339Z,2.47
2023-06-28T07:16:47.575Z,1.90
2023-06-28T07:19:16.899Z,2.35
2023-06-28T07:21:46.141Z,2.60
2023-06-28T07:24:15.502Z,1.90
2023-06-28T07:26:44.649Z,2.13
2023-06-28T07:29:13.747Z,2.03
2023-06-28T07:31:42.798Z,2.08
2023-06-28T07:34:11.917Z,2.13
2023-06-28T07:36:40.952Z,2.50
2023-06-28T07:39:11.647Z,2.00
2023-06-28T07:41:40.721Z,2.33
2023-06-28T07:44:09.770Z,2.47
2023-06-28T07:46:39.102Z,2.40
2023-06-28T07:49:08.088Z,2.00
2023-06-28T07:51:37.124Z,2.50
2023-06-28T07:54:07.973Z,4.45
2023-06-28T07:56:40.622Z,2.78
2023-06-28T07:59:09.603Z,3.17
2023-06-28T08:01:38.718Z,3.08
2023-06-28T08:04:08.041Z,2.42
2023-06-28T08:06:37.046Z,2.60
2023-06-28T08:09:06.460Z,3.53
2023-06-28T08:11:35.467Z,3.15
2023-06-28T08:14:04.779Z,3.20
2023-06-28T08:16:34.091Z,2.15
2023-06-28T08:19:03.081Z,3.00
2023-06-28T08:21:32.299Z,3.97
2023-06-28T08:24:01.464Z,2.83
2023-06-28T08:26:30.559Z,3.17
2023-06-28T08:29:03.328Z,1.98
2023-06-28T08:31:32.472Z,2.35
2023-06-28T08:34:01.632Z,2.72
2023-06-28T08:36:31.694Z,2.42
2023-06-28T08:39:00.690Z,4.53
2023-06-28T08:41:29.902Z,3.00
2023-06-28T08:44:02.137Z,2.80
2023-06-28T08:46:34.422Z,2.42
2023-06-28T08:49:04.870Z,2.67
2023-06-28T08:51:34.748Z,2.63
2023-06-28T08:54:07.128Z,2.70
2023-06-28T08:56:48.017Z,3.45
2023-06-28T08:59:21.520Z,2.83
2023-06-28T09:01:53.439Z,2.57
2023-06-28T09:04:24.470Z,2.95
2023-06-28T09:06:57.449Z,3.22
2023-06-28T09:09:28.101Z,3.05
2023-06-28T09:11:57.588Z,2.95
2023-06-28T09:14:26.595Z,2.92
2023-06-28T09:16:56.371Z,3.25
2023-06-28T09:19:25.397Z,2.70
2023-06-28T09:21:54.304Z,2.90
2023-06-28T09:24:27.851Z,3.25
2023-06-28T09:26:56.847Z,2.60
2023-06-28T09:29:25.804Z,2.65
2023-06-28T09:31:57.386Z,2.63
2023-06-28T09:34:26.918Z,3.17
2023-06-28T09:36:57.007Z,4.35
2023-06-28T09:39:28.020Z,2.80
2023-06-28T09:41:57.283Z,3.13
2023-06-28T09:44:32.834Z,2.75
2023-06-28T09:47:08.602Z,2.30
2023-06-28T09:49:40.418Z,2.80
2023-06-28T09:52:09.940Z,3.22
2023-06-28T09:54:48.210Z,6.72
2023-06-28T09:57:18.215Z,3.42
2023-06-28T09:59:48.462Z,2.58
2023-06-28T10:02:22.639Z,2.40
2023-06-28T10:04:53.876Z,2.20
2023-06-28T10:07:25.645Z,2.50
2023-06-28T10:09:56.363Z,2.65
2023-06-28T10:12:30.335Z,2.58
2023-06-28T10:15:05.189Z,3.67
2023-06-28T10:17:36.489Z,5.07
2023-06-28T10:20:07.308Z,4.30
2023-06-28T10:22:36.915Z,4.55
2023-06-28T10:25:07.203Z,5.70
2023-06-28T10:27:36.804Z,4.05
2023-06-28T10:30:06.849Z,4.20
2023-06-28T10:32:37.012Z,4.07
2023-06-28T10:35:08.886Z,5.82
2023-06-28T10:37:38.321Z,5.38
2023-06-28T10:40:11.671Z,5.47
2023-06-28T10:42:41.987Z,4.35
2023-06-28T10:45:11.660Z,5.40
2023-06-28T10:47:56.413Z,5.63
2023-06-28T10:50:26.353Z,5.55
2023-06-28T10:52:57.868Z,4.90
2023-06-28T10:55:35.044Z,5.35
2023-06-28T10:58:08.563Z,4.60
2023-06-28T11:00:42.892Z,4.82
2023-06-28T11:03:12.094Z,6.60
2023-06-28T11:05:47.439Z,7.10
2023-06-28T11:08:19.138Z,4.95
2023-06-28T11:10:56.523Z,3.20
2023-06-28T11:13:47.614Z,3.88
2023-06-28T11:16:33.336Z,3.65
2023-06-28T11:19:17.115Z,2.85
2023-06-28T11:21:51.673Z,3.63
2023-06-28T11:24:40.718Z,5.63
2023-06-28T11:27:19.423Z,7.30
2023-06-28T11:29:56.298Z,9.82
2023-06-28T11:32:35.512Z,4.65
2023-06-28T11:35:06.418Z,2.30
2023-06-28T11:37:35.562Z,2.80
2023-06-28T11:40:05.603Z,3.08
2023-06-28T11:42:34.589Z,3.63
2023-06-28T11:45:03.534Z,4.68
2023-06-28T11:47:33.082Z,4.53
2023-06-28T11:50:02.114Z,4.20
2023-06-28T11:52:31.658Z,3.08
2023-06-28T11:55:01.401Z,2.90
2023-06-28T11:57:30.462Z,3.00
2023-06-28T11:59:59.456Z,2.97
2023-06-28T12:02:28.508Z,3.17
2023-06-28T12:05:02.563Z,3.95
2023-06-28T12:07:31.880Z,4.68
2023-06-28T12:10:01.879Z,2.95
2023-06-28T12:12:37.823Z,2.30
2023-06-28T12:15:08.069Z,2.58
2023-06-28T12:17:44.727Z,2.78
2023-06-28T12:20:14.621Z,4.05
2023-06-28T12:22:48.742Z,3.38
2023-06-28T12:25:29.045Z,4.88
2023-06-28T12:28:05.457Z,3.95
2023-06-28T12:30:34.448Z,3.13
2023-06-28T12:33:11.091Z,3.78
2023-06-28T12:35:48.462Z,2.85
2023-06-28T12:38:21.497Z,2.97
2023-06-28T12:40:50.666Z,2.60
2023-06-28T12:43:27.486Z,2.78
2023-06-28T12:45:57.598Z,3.00
2023-06-28T12:48:26.605Z,2.65
2023-06-28T12:50:57.840Z,2.25
2023-06-28T12:53:26.997Z,2.63
2023-06-28T12:55:56.026Z,2.25
2023-06-28T12:58:25.036Z,2.50
2023-06-28T13:00:54.057Z,1.92
2023-06-28T13:03:23.336Z,1.95
2023-06-28T13:05:52.464Z,3.00
2023-06-28T13:08:21.828Z,2.50
2023-06-28T13:10:50.930Z,3.08
2023-06-28T13:13:20.019Z,2.67
2023-06-28T13:15:49.116Z,2.35
2023-06-28T13:18:18.106Z,3.17
2023-06-28T13:20:47.159Z,3.42
2023-06-28T13:23:16.207Z,3.50
2023-06-28T13:25:45.418Z,3.72
2023-06-28T13:28:14.651Z,3.50
2023-06-28T13:30:43.648Z,3.25
2023-06-28T13:33:12.645Z,2.58
2023-06-28T13:35:41.890Z,2.28
2023-06-28T13:38:11.151Z,2.60
2023-06-28T13:40:40.175Z,2.00
2023-06-28T13:43:10.464Z,2.05
2023-06-28T13:45:40.267Z,1.98
2023-06-28T13:48:11.802Z,2.13
2023-06-28T13:50:41.134Z,1.95
2023-06-28T13:53:10.235Z,1.95
2023-06-28T13:55:39.275Z,1.63
2023-06-28T13:58:08.291Z,1.48
2023-06-28T14:00:37.612Z,1.58
2023-06-28T14:03:06.704Z,1.50
2023-06-28T14:05:35.925Z,1.95
2023-06-28T14:08:05.202Z,1.50
2023-06-28T14:10:34.151Z,2.17
2023-06-28T14:13:03.222Z,4.75
2023-06-28T14:15:32.273Z,2.75
2023-06-28T14:18:02.523Z,2.45
2023-06-28T14:20:31.780Z,2.55
2023-06-28T14:23:00.850Z,2.83
2023-06-28T14:25:30.276Z,2.67
2023-06-28T14:28:00.522Z,2.90
2023-06-28T14:30:29.563Z,3.00
2023-06-28T14:32:59.096Z,2.83
2023-06-28T14:35:28.402Z,3.30
2023-06-28T14:37:57.501Z,3.30
2023-06-28T14:40:26.621Z,2.60
2023-06-28T14:42:55.654Z,2.60
2023-06-28T14:45:24.680Z,2.95
2023-06-28T14:47:55.065Z,2.85
2023-06-28T14:50:24.146Z,2.90
2023-06-28T14:52:53.196Z,2.92
2023-06-28T14:55:22.195Z,2.95
2023-06-28T14:57:51.132Z,2.78
2023-06-28T15:00:20.457Z,2.10
2023-06-28T15:02:50.598Z,2.42
2023-06-28T15:05:19.647Z,1.98
2023-06-28T15:07:48.744Z,2.22
2023-06-28T15:10:19.619Z,2.35
2023-06-28T15:12:48.687Z,3.53
2023-06-28T15:15:17.699Z,2.80
2023-06-28T15:17:46.769Z,3.83
2023-06-28T15:20:20.220Z,3.22
2023-06-28T15:23:07.129Z,3.50
2023-06-28T15:25:36.470Z,3.60
2023-06-28T15:28:05.718Z,2.97
2023-06-28T15:30:34.783Z,3.45
2023-06-28T15:33:03.881Z,3.25
2023-06-28T15:35:32.953Z,3.38
2023-06-28T15:38:02.019Z,3.40
2023-06-28T15:40:34.221Z,3.33
2023-06-28T15:43:03.857Z,3.22
2023-06-28T15:45:32.825Z,3.00
2023-06-28T15:48:01.863Z,3.22
2023-06-28T15:50:30.885Z,3.08
2023-06-28T15:52:59.840Z,3.15
2023-06-28T15:55:29.043Z,3.60
2023-06-28T15:57:58.027Z,3.03
2023-06-28T16:00:27.112Z,3.25
2023-06-28T16:02:56.461Z,3.50
2023-06-28T16:05:25.524Z,3.60
2023-06-28T16:07:55.084Z,3.03
2023-06-28T16:10:24.555Z,2.85
2023-06-28T16:12:53.727Z,3.50
2023-06-28T16:15:22.801Z,2.90
2023-06-28T16:17:51.856Z,2.70
2023-06-28T16:20:21.237Z,2.80
2023-06-28T16:22:50.960Z,3.05
2023-06-28T16:25:20.213Z,3.70
2023-06-28T16:27:49.191Z,4.38
2023-06-28T16:30:18.318Z,3.53
2023-06-28T16:32:47.318Z,4.30
2023-06-28T16:35:16.514Z,3.53
2023-06-28T16:37:45.489Z,3.92
2023-06-28T16:40:16.362Z,3.42
2023-06-28T16:42:45.319Z,3.47
2023-06-28T16:45:14.367Z,4.18
2023-06-28T16:47:43.417Z,3.30
2023-06-28T16:50:12.819Z,4.38
2023-06-28T16:52:41.928Z,4.10
2023-06-28T16:55:10.989Z,3.63
2023-06-28T16:57:40.120Z,3.78
2023-06-28T17:00:10.285Z,3.45
2023-06-28T17:02:39.419Z,3.08
2023-06-28T17:05:08.713Z,3.13
2023-06-28T17:07:37.701Z,4.28
2023-06-28T17:12:33.898Z,3.55
2023-06-28T17:15:02.893Z,4.13
2023-06-28T17:17:31.948Z,3.22
2023-06-28T17:20:00.912Z,4.18
2023-06-28T17:22:33.398Z,4.13
2023-06-28T17:25:03.254Z,4.72
2023-06-28T17:27:32.293Z,3.80
2023-06-28T17:30:01.322Z,4.35
2023-06-28T17:32:30.367Z,3.65
2023-06-28T17:34:59.370Z,4.22
2023-06-28T17:37:28.579Z,3.97
2023-06-28T17:39:58.031Z,3.63
2023-06-28T17:42:27.079Z,4.63
2023-06-28T17:44:56.062Z,3.72
2023-06-28T17:47:25.092Z,3.70
2023-06-28T17:49:54.066Z,3.83
2023-06-28T17:52:22.988Z,3.88
2023-06-28T17:54:52.369Z,4.13
2023-06-28T17:57:21.378Z,4.30
2023-06-28T17:59:50.616Z,4.20
2023-06-28T18:02:19.609Z,4.60
2023-06-28T18:04:48.610Z,4.60
2023-06-28T18:07:17.670Z,5.00
2023-06-28T18:09:46.762Z,4.15
2023-06-28T18:12:15.832Z,4.22
2023-06-28T18:14:44.834Z,4.22
2023-06-28T18:17:13.884Z,4.18
2023-06-28T18:19:44.555Z,4.03
2023-06-28T18:22:13.614Z,4.80
2023-06-28T18:24:42.586Z,4.88
2023-06-28T18:27:11.646Z,4.35
2023-06-28T18:29:40.597Z,5.10
2023-06-28T18:32:10.223Z,5.78
2023-06-28T18:34:39.263Z,6.18
2023-06-28T18:37:08.394Z,7.22
2023-06-28T18:39:37.398Z,6.65
2023-06-28T18:42:06.729Z,6.40
2023-06-28T18:44:35.723Z,7.47
2023-06-28T18:47:05.951Z,7.28
2023-06-28T18:49:34.964Z,7.13
2023-06-28T18:52:03.984Z,6.10
2023-06-28T18:54:32.994Z,6.50
2023-06-28T18:57:02.047Z,5.03
2023-06-28T18:59:31.013Z,5.78
2023-06-28T19:01:59.970Z,5.25
2023-06-28T19:04:28.931Z,4.97
2023-06-28T19:06:57.989Z,4.90
2023-06-28T19:09:27.051Z,5.05
2023-06-28T19:11:56.059Z,6.20
2023-06-28T19:14:25.063Z,5.80
2023-06-28T19:16:54.024Z,5.07
2023-06-28T19:19:23.202Z,4.15
2023-06-28T19:21:52.210Z,5.25
2023-06-28T19:24:21.155Z,4.40
2023-06-28T19:26:50.107Z,6.20
2023-06-28T19:29:19.223Z,4.63
2023-06-28T19:31:48.233Z,4.80
2023-06-28T19:34:17.209Z,5.43
2023-06-28T19:36:46.138Z,4.55
2023-06-28T19:39:15.127Z,5.90
2023-06-28T19:41:44.214Z,5.28
2023-06-28T19:44:13.176Z,5.38
2023-06-28T19:46:42.131Z,6.00
2023-06-28T19:49:11.047Z,6.43
2023-06-28T19:51:40.081Z,6.13
2023-06-28T19:54:09.074Z,5.22
2023-06-28T19:56:38.101Z,6.68
2023-06-28T19:59:07.074Z,6.07
2023-06-28T20:01:36.096Z,6.25
2023-06-28T20:04:05.097Z,5.55
2023-06-28T20:06:41.667Z,6.20
2023-06-28T20:09:11.190Z,5.43
2023-06-28T20:11:40.848Z,7.10
2023-06-28T20:14:11.056Z,5.70
2023-06-28T20:16:41.099Z,5.00
2023-06-28T20:19:13.469Z,5.95
2023-06-28T20:21:43.314Z,6.05
2023-06-28T20:24:13.548Z,5.50
2023-06-28T20:26:42.624Z,5.40
2023-06-28T20:29:11.656Z,4.95
2023-06-28T20:31:40.688Z,5.97
2023-06-28T20:34:10.572Z,6.45
2023-06-28T20:36:39.594Z,5.97
2023-06-28T20:39:08.695Z,6.63
2023-06-28T20:41:37.688Z,6.05
2023-06-28T20:44:07.754Z,6.85
2023-06-28T20:46:36.717Z,5.53
2023-06-28T20:49:06.631Z,6.55
2023-06-28T20:51:36.132Z,6.63
2023-06-28T20:54:05.151Z,6.25
2023-06-28T20:56:34.290Z,6.53
2023-06-28T20:59:03.346Z,6.47
2023-06-28T21:01:32.403Z,6.97
2023-06-28T21:04:01.408Z,6.63
2023-06-28T21:06:30.514Z,6.13
2023-06-28T21:08:59.457Z,6.05
2023-06-28T21:11:28.821Z,6.20
2023-06-28T21:13:58.007Z,7.07
2023-06-28T21:16:27.004Z,7.00
2023-06-28T21:18:55.957Z,7.32
2023-06-28T21:21:25.038Z,7.65
2023-06-28T21:23:55.019Z,6.93
2023-06-28T21:26:23.964Z,6.40
2023-06-28T21:28:52.942Z,6.05
2023-06-28T21:31:21.929Z,6.40
2023-06-28T21:33:51.978Z,5.93
2023-06-28T21:36:20.979Z,6.07
2023-06-28T21:38:50.825Z,6.28
2023-06-28T21:41:19.970Z,6.22
2023-06-28T21:43:49.057Z,6.32
2023-06-28T21:46:17.993Z,7.55
2023-06-28T21:48:46.958Z,6.28
2023-06-28T21:51:15.955Z,6.80
2023-06-28T21:53:44.938Z,6.65
2023-06-28T21:56:14.016Z,6.78
2023-06-28T21:58:43.009Z,6.55
2023-06-28T22:01:12.339Z,7.00
2023-06-28T22:03:41.341Z,6.63
2023-06-28T22:06:10.410Z,7.65
2023-06-28T22:08:39.817Z,6.85
2023-06-28T22:11:10.470Z,5.97
2023-06-28T22:13:43.394Z,6.05
2023-06-28T22:16:15.658Z,5.68
2023-06-28T22:18:47.894Z,7.13
2023-06-28T22:21:18.144Z,6.65
2023-06-28T22:23:47.089Z,7.57
2023-06-28T22:26:16.318Z,8.45
2023-06-28T22:28:45.268Z,8.57
2023-06-28T22:31:14.364Z,8.68
2023-06-28T22:33:43.418Z,8.85
2023-06-28T22:36:12.477Z,7.72
2023-06-28T22:38:51.525Z,7.55
2023-06-28T22:41:21.936Z,7.18
2023-06-28T22:43:51.046Z,7.10
2023-06-28T22:46:20.191Z,7.10
2023-06-28T22:48:49.155Z,7.25
2023-06-28T22:51:19.190Z,6.65
2023-06-28T22:53:49.410Z,7.13
2023-06-28T22:56:19.039Z,7.50
2023-06-28T22:58:48.081Z,8.75
2023-06-28T23:01:17.051Z,10.93
2023-06-28T23:03:46.119Z,12.45
2023-06-28T23:06:15.138Z,11.60
2023-06-28T23:08:44.416Z,11.20
2023-06-28T23:11:13.463Z,10.98
2023-06-28T23:13:46.383Z,10.23
2023-06-28T23:16:17.590Z,7.78
2023-06-28T23:18:49.199Z,7.72
2023-06-28T23:21:18.193Z,8.20
2023-06-28T23:23:47.283Z,7.90
2023-06-28T23:26:19.230Z,8.07
2023-06-28T23:28:48.271Z,8.70
2023-06-28T23:31:17.629Z,8.27
2023-06-28T23:33:47.210Z,8.43
2023-06-28T23:36:16.265Z,8.90
2023-06-28T23:38:46.670Z,9.73
2023-06-28T23:41:15.716Z,8.95
2023-06-28T23:43:44.777Z,8.35
2023-06-28T23:46:15.033Z,8.30
2023-06-28T23:48:46.619Z,8.48
2023-06-28T23:51:15.633Z,9.25
2023-06-28T23:53:44.628Z,8.95
2023-06-28T23:56:14.003Z,9.52
2023-06-28T23:58:43.447Z,9.40
